Latest Weather Observations for Ben Nevis

IDV60801

Issued at 4:35 pm EST Sunday 20 April 2014 (issued every 30 minutes, with the page automatically refreshed every 10 minutes)

About weather observations | Map of weather stations | Latest weather observations for VIC | Other Formats
Station Details ID: 079101 Name: BEN NEVIS Lat: -37.23 Lon: 143.20 Height: 875.0 m
Data from the previous 72 hours. | See also: Recent months at Ben Nevis
Date/Time
EST
Temp
°C
App
Temp
°C
Dew
Point
Rel
Hum
%
Delta-T
°C
Wind Press
QNH
hPa
Press
MSL
hPa
Rain
since 9 am
mm
Dir
 
Spd
km/h
Gust
km/h
Spd
kts
Gust
kts
20/04:30pm 11.7 9.6 4.0 59 3.6 NW 4 9 2 5 - - 0.0
20/04:00pm 12.5 9.5 4.2 57 4.0 NNW 9 15 5 8 - - 0.0
20/03:30pm 11.9 9.2 3.9 58 3.8 W 7 11 4 6 - - 0.0
20/03:00pm 12.0 8.6 4.0 58 3.8 W 11 24 6 13 - - 0.0
20/02:30pm 12.3 9.3 4.3 58 3.8 W 9 20 5 11 - - 0.0
20/02:00pm 13.3 9.9 3.9 53 4.5 WNW 11 17 6 9 - - 0.0
20/01:30pm 12.7 9.2 3.4 53 4.4 NW 11 17 6 9 - - 0.0
20/01:00pm 12.0 8.5 3.3 55 4.0 W 11 22 6 12 - - 0.0
20/12:30pm 12.0 8.5 3.5 56 4.0 W 11 22 6 12 - - 0.0
20/12:00pm 12.0 9.0 4.0 58 3.8 NW 9 17 5 9 - - 0.0
20/11:30am 10.7 7.2 3.3 60 3.4 WNW 11 20 6 11 - - 0.0
20/11:00am 10.4 7.7 3.9 64 3.0 NW 7 15 4 8 - - 0.0
20/10:30am 9.6 6.6 4.2 69 2.5 NW 9 19 5 10 - - 0.0
20/10:00am 8.7 5.2 3.3 69 2.4 NW 11 19 6 10 - - 0.0
20/09:30am 7.5 3.9 2.8 72 2.1 NNW 11 22 6 12 - - 0.0
20/09:00am 7.2 3.6 2.9 74 1.9 NW 11 20 6 11 - - 0.0
20/08:30am 6.8 2.7 2.5 74 1.9 W 13 20 7 11 - - 0.0
20/08:00am 6.4 2.7 2.3 75 1.8 WNW 11 20 6 11 - - 0.0
20/07:30am 6.3 2.6 2.4 76 1.7 WNW 11 24 6 13 - - 0.0
20/07:00am 5.9 3.1 2.9 81 1.3 W 7 15 4 8 - - 0.0
20/06:30am 5.8 3.0 3.0 82 1.2 NW 7 13 4 7 - - 0.0
20/06:00am 5.9 3.0 2.7 80 1.4 NNW 7 13 4 7 - - 0.0
20/05:30am 6.3 3.6 2.8 78 1.5 NW 6 11 3 6 - - 0.0
20/05:00am 6.7 4.3 2.2 73 1.9 W 4 9 2 5 - - 0.0
20/04:30am 6.9 3.1 1.8 70 2.2 W 11 15 6 8 - - 0.0
20/04:00am 6.8 2.6 1.7 70 2.2 W 13 20 7 11 - - 0.0
20/03:30am 6.8 3.4 1.9 71 2.1 W 9 15 5 8 - - 0.0
20/03:00am 6.6 3.9 2.7 76 1.7 WNW 6 11 3 6 - - 0.0
20/02:30am 6.8 3.9 2.5 74 1.9 WNW 7 13 4 7 - - 0.0
20/02:00am 6.7 3.9 2.2 73 1.9 WNW 6 15 3 8 - - 0.0
20/01:30am 6.8 4.1 2.7 75 1.8 W 6 11 3 6 - - 0.0
20/01:00am 6.8 4.0 2.9 76 1.7 W 7 17 4 9 - - 0.0
20/12:30am 6.8 4.0 3.4 79 1.5 WNW 7 13 4 7 - - 0.0
20/12:00am 6.8 4.1 3.8 81 1.4 W 7 13 4 7 - - 0.0
 
Date/Time
EST
Temp
°C
App
Temp
°C
Dew
Point
Rel
Hum
%
Delta-T
°C
Wind Press
QNH
hPa
Press
MSL
hPa
Rain
since 9 am
mm
Dir
 
Spd
km/h
Gust
km/h
Spd
kts
Gust
kts
19/11:30pm 6.9 5.1 3.2 77 1.6 W 2 6 1 3 - - 0.0
19/11:00pm 6.9 4.1 3.2 77 1.6 W 7 9 4 5 - - 0.0
19/10:30pm 7.0 5.6 3.8 80 1.4 CALM 0 6 0 3 - - 0.0
19/10:00pm 7.0 4.2 3.1 76 1.7 W 7 11 4 6 - - 0.0
19/09:30pm 7.1 5.3 3.5 78 1.6 W 2 7 1 4 - - 0.0
19/09:00pm 7.2 4.8 2.3 71 2.1 W 4 15 2 8 - - 0.0
19/08:30pm 7.3 4.6 2.6 72 2.1 W 6 9 3 5 - - 0.0
19/08:00pm 7.3 4.0 2.2 70 2.2 SW 9 15 5 8 - - 0.0
19/07:30pm 7.3 4.0 2.4 71 2.1 SW 9 13 5 7 - - 0.0
19/07:00pm 7.3 3.2 2.4 71 2.1 SW 13 17 7 9 - - 0.0
19/06:30pm 7.3 3.3 2.8 73 2.0 SW 13 17 7 9 - - 0.0
19/06:00pm 7.2 4.2 4.2 81 1.4 SSW 9 13 5 7 - - 0.0
19/05:30pm 7.3 4.4 4.4 82 1.3 S 9 13 5 7 - - 0.0
19/05:00pm 7.6 4.7 4.7 82 1.3 S 9 13 5 7 - - 0.0
19/04:30pm 7.5 4.2 4.8 83 1.3 S 11 15 6 8 - - 0.0
19/04:00pm 7.8 3.8 4.9 82 1.4 SSW 15 22 8 12 - - 0.0
19/03:30pm 8.8 6.2 4.0 72 2.2 W 7 11 4 6 - - 0.0
19/03:00pm 8.8 6.2 4.0 72 2.2 W 7 11 4 6 - - 0.0
19/02:30pm 8.9 6.3 4.1 72 2.2 SW 7 11 4 6 - - 0.0
19/02:00pm 8.5 5.6 4.7 77 1.8 SW 9 15 5 8 - - 0.0
19/01:30pm 9.2 6.3 4.6 73 2.2 SSW 9 15 5 8 - - 0.0
19/01:00pm 9.1 5.8 4.5 73 2.1 SW 11 17 6 9 - - 0.0
19/12:30pm 8.2 4.8 4.2 76 1.8 SSW 11 17 6 9 - - 0.0
19/12:00pm 8.4 5.0 3.8 73 2.1 WSW 11 19 6 10 - - 0.0
19/11:30am 7.6 4.1 3.6 76 1.8 SSW 11 17 6 9 - - 0.0
19/11:00am 8.0 4.6 4.2 77 1.7 WSW 11 17 6 9 - - 0.0
19/10:30am 7.4 4.0 3.8 78 1.6 SW 11 17 6 9 - - 0.0
19/10:00am 8.0 4.6 3.8 75 1.9 SSW 11 19 6 10 - - 0.0
19/09:30am 6.9 3.2 4.7 86 1.0 SW 13 20 7 11 - - 0.0
19/09:00am 6.1 2.5 5.2 94 0.4 SW 13 24 7 13 - - 3.4
19/08:30am 5.4 2.2 5.0 97 0.2 SW 11 19 6 10 - - 3.4
19/08:00am 5.1 1.4 4.7 97 0.2 SSW 13 22 7 12 - - 3.4
19/07:30am 5.1 1.0 4.4 95 0.3 SW 15 24 8 13 - - 3.4
19/07:00am 4.9 1.2 4.2 95 0.3 SSW 13 22 7 12 - - 3.4
19/06:30am 4.9 0.8 4.2 95 0.3 SSW 15 26 8 14 - - 3.4
19/06:00am 4.9 0.7 4.0 94 0.4 SSW 15 26 8 14 - - 3.4
19/05:30am 4.9 0.5 4.5 97 0.2 SSW 17 26 9 14 - - 3.4
19/05:00am 4.8 0.7 4.5 98 0.1 SSW 15 28 8 15 - - 3.4
19/04:30am 4.9 0.5 4.6 98 0.1 SSW 17 24 9 13 - - 3.4
19/04:00am 4.8 1.1 4.5 98 0.1 SSW 13 20 7 11 - - 3.4
19/03:30am 4.7 -0.1 4.4 98 0.1 SSW 19 28 10 15 - - 3.4
19/03:00am 4.7 -0.1 4.4 98 0.1 SSW 19 30 10 16 - - 3.4
19/02:30am 4.7 -0.1 4.4 98 0.1 SSW 19 32 10 17 - - 3.4
19/02:00am 4.7 -0.3 4.4 98 0.1 SSW 20 35 11 19 - - 3.4
19/01:30am 4.9 -0.5 4.6 98 0.1 SSW 22 32 12 17 - - 3.4
19/01:00am 4.7 -0.7 4.3 97 0.2 SSW 22 32 12 17 - - 3.4
19/12:30am 5.0 0.2 4.7 98 0.1 SSW 19 28 10 15 - - 3.4
19/12:00am 5.0 0.6 4.6 97 0.2 SSW 17 28 9 15 - - 3.4
 
Date/Time
EST
Temp
°C
App
Temp
°C
Dew
Point
Rel
Hum
%
Delta-T
°C
Wind Press
QNH
hPa
Press
MSL
hPa
Rain
since 9 am
mm
Dir
 
Spd
km/h
Gust
km/h
Spd
kts
Gust
kts
18/11:30pm 5.2 0.4 4.8 97 0.2 SSW 19 32 10 17 - - 3.4
18/11:00pm 5.1 0.1 4.7 97 0.2 SSW 20 35 11 19 - - 3.4
18/10:30pm 5.1 -0.3 4.5 96 0.3 SSW 22 33 12 18 - - 3.4
18/10:00pm 5.4 -0.7 4.7 95 0.3 SSW 26 37 14 20 - - 3.4
18/09:30pm 5.5 -0.3 4.3 92 0.5 SW 24 35 13 19 - - 3.4
18/09:00pm 5.5 -0.4 4.0 90 0.7 SW 24 39 13 21 - - 3.4
18/08:30pm 5.4 -1.0 3.4 87 0.9 SW 26 37 14 20 - - 3.4
18/08:00pm 5.5 -1.0 2.8 83 1.2 SW 26 41 14 22 - - 3.4
18/07:30pm 5.7 -0.4 2.7 81 1.3 SSW 24 35 13 19 - - 3.4
18/07:00pm 6.0 0.0 3.3 83 1.2 SW 24 37 13 20 - - 3.4
18/06:30pm 6.4 -0.3 3.6 82 1.3 SSW 28 43 15 23 - - 3.4
18/06:29pm 6.5 -0.2 3.7 82 1.3 SSW 28 46 15 25 - - 3.4
18/06:00pm 7.5 2.2 3.2 74 1.9 SSW 20 32 11 17 - - 3.4
18/05:30pm 8.0 1.9 2.9 70 2.3 SSW 24 41 13 22 - - 3.4
18/05:09pm 8.7 1.9 3.3 69 2.4 SSW 28 46 15 25 - - 3.4
18/05:00pm 9.2 3.1 3.0 65 2.8 SSW 24 44 13 24 - - 3.4
18/04:30pm 9.3 3.1 2.4 62 3.1 SSW 24 43 13 23 - - 3.4
18/04:00pm 9.6 3.7 3.8 67 2.7 SSW 24 44 13 24 - - 3.4
18/03:30pm 10.8 5.0 4.3 64 3.1 SW 24 43 13 23 - - 3.4
18/03:00pm 10.8 4.4 3.4 60 3.4 SW 26 43 14 23 - - 3.4
18/02:30pm 11.1 4.2 2.4 55 3.9 SW 28 48 15 26 - - 3.4
18/02:05pm 10.8 3.8 1.9 54 4.0 SW 28 50 15 27 - - 3.4
18/02:00pm 11.2 5.1 3.0 57 3.8 SW 24 43 13 23 - - 3.4
18/01:30pm 12.0 6.5 5.9 66 3.0 SW 24 43 13 23 - - 3.4
18/01:00pm 10.4 3.0 3.9 64 3.0 SW 32 57 17 31 - - 3.4
18/12:54pm 10.5 3.8 3.8 63 3.1 SW 28 57 15 31 - - 3.4
18/12:30pm 10.6 5.3 8.4 86 1.1 SW 26 46 14 25 - - 3.4
18/12:12pm 8.9 2.5 7.0 88 0.9 SW 30 50 16 27 - - 3.4
18/12:00pm 9.3 4.1 8.8 97 0.3 SW 26 39 14 21 - - 3.4
18/11:30am 8.7 1.4 8.6 99 0.1 SSW 37 57 20 31 - - 3.4
18/11:01am 9.1 2.2 9.0 99 0.1 SW 35 54 19 29 - - 3.4
18/11:00am 9.1 1.9 9.0 99 0.1 SW 37 54 20 29 - - 3.4
18/10:30am 8.7 2.3 8.4 98 0.2 SSW 32 50 17 27 - - 2.8
18/10:12am 8.9 3.2 8.5 97 0.2 SW 28 46 15 25 - - 2.6
18/10:00am 9.5 3.9 8.7 95 0.4 SW 28 41 15 22 - - 2.2
18/09:30am 10.9 7.5 9.3 90 0.8 W 17 30 9 16 - - 0.0
18/09:00am 10.3 6.5 9.8 97 0.3 W 20 32 11 17 - - 0.0
18/08:30am 9.5 6.0 8.9 96 0.3 W 17 30 9 16 - - 0.0
18/08:00am 9.2 5.5 8.0 92 0.6 WNW 17 30 9 16 - - 0.0
18/07:30am 9.4 6.4 7.5 88 0.9 WNW 13 22 7 12 - - 0.0
18/07:00am 9.5 6.7 7.1 85 1.2 NW 11 24 6 13 - - 0.0
18/06:30am 10.1 7.9 7.9 86 1.1 NNW 9 26 5 14 - - 0.0
18/06:00am 10.4 7.8 7.8 84 1.3 WNW 11 20 6 11 - - 0.0
18/05:30am 10.8 8.2 7.7 81 1.6 WNW 11 19 6 10 - - 0.0
18/05:00am 10.8 8.2 7.7 81 1.6 WNW 11 19 6 10 - - 0.0
18/04:30am 11.0 7.6 7.5 79 1.8 W 15 22 8 12 - - 0.0
18/04:00am 11.3 7.1 7.4 77 2.0 W 19 30 10 16 - - 0.0
18/03:30am 11.2 7.3 7.1 76 2.1 W 17 24 9 13 - - 0.0
18/03:00am 11.3 7.0 7.2 76 2.1 W 19 30 10 16 - - 0.0
18/02:30am 11.2 7.6 6.9 75 2.1 W 15 24 8 13 - - 0.0
18/02:00am 10.7 7.1 6.6 76 2.0 W 15 24 8 13 - - 0.0
18/01:30am 10.8 7.9 6.6 75 2.1 WNW 11 19 6 10 - - 0.0
18/01:00am 10.4 7.5 6.4 76 2.0 W 11 20 6 11 - - 0.0
18/12:30am 10.8 7.7 7.3 79 1.8 W 13 22 7 12 - - 0.0
18/12:00am 11.4 8.6 6.9 74 2.3 WNW 11 20 6 11 - - 0.0
 
Date/Time
EST
Temp
°C
App
Temp
°C
Dew
Point
Rel
Hum
%
Delta-T
°C
Wind Press
QNH
hPa
Press
MSL
hPa
Rain
since 9 am
mm
Dir
 
Spd
km/h
Gust
km/h
Spd
kts
Gust
kts
17/11:30pm 11.7 9.3 6.8 72 2.5 W 9 17 5 9 - - 0.0
17/11:00pm 12.1 7.9 7.4 73 2.4 W 19 26 10 14 - - 0.0
17/10:30pm 10.4 6.5 7.3 81 1.6 SW 17 24 9 13 - - 0.0
17/10:00pm 11.1 6.7 5.0 66 2.9 WSW 17 22 9 12 - - 0.0
17/09:30pm 12.2 9.2 4.2 58 3.8 N 9 15 5 8 - - 0.0
17/09:00pm 12.8 9.9 4.8 58 3.9 N 9 17 5 9 - - 0.0
17/08:30pm 12.9 10.4 4.8 58 3.9 N 7 13 4 7 - - 0.0
17/08:00pm 13.0 10.6 4.4 56 4.1 NNW 6 17 3 9 - - 0.0
17/07:30pm 13.0 10.4 4.2 55 4.2 NNW 7 17 4 9 - - 0.0
17/07:00pm 13.0 10.4 4.4 56 4.1 W 7 13 4 7 - - 0.0
17/06:30pm 13.2 10.7 4.6 56 4.2 WSW 7 17 4 9 - - 0.0
17/06:00pm 13.8 11.4 4.4 53 4.5 W 6 11 3 6 - - 0.0
17/05:30pm 14.8 12.5 4.8 51 4.9 N 6 9 3 5 - - 0.0
17/05:00pm 15.3 13.0 4.9 50 5.1 ENE 6 15 3 8 - - 0.0

Other Formats:

Comma delimited format used in spreadsheet applications
http://www.bom.gov.au/fwo/IDV60801/IDV60801.94835.axf

JavaScript Object Notation format (JSON) in row-major order
http://www.bom.gov.au/fwo/IDV60801/IDV60801.94835.json